Flight Track Log - Related Links

Times and Time Zones

All times are in EDT time to prevent confusion due to time zone crossing. See the GJS3618 flight status page for this flight to view local times or setup timezone preferences in your user account.

Time Position Orientation Groundspeed Altitude Reporting Facility
EDT Latitude Longitude Course Direction KTS MPH feet Rate Location/Type
Sun 08:03:07 AM 43.0725 -89.3286 164° South 208 239 4,100  Level Chicago Center
Sun 08:04:08 AM 43.0086 -89.3036 164° South 223 257 6,900 2,341 Climbing Chicago Center
Sun 08:05:10 AM 42.9408 -89.2725 161° South 247 284 8,900 1,854 Climbing Chicago Center
Sun 08:06:11 AM 42.8664 -89.2406 163° South 273 314 10,700 1,033 Climbing Chicago Center
Sun 08:07:00 AM 42.7272 -89.1742 164° South  Level FlightAware Approximate
Sun 08:07:12 AM 42.7664 -89.1981 163° South 316 364 11,000  Level Chicago Center
Sun 08:08:00 AM 42.6524 -89.1442 164° South  Level FlightAware Approximate
Sun 08:08:13 AM 42.6825 -89.1592 161° South 320 368 11,000  Level Chicago Center
Sun 08:09:14 AM 42.5994 -89.1242 163° South 315 362 11,000  Level Chicago Center
Sun 08:10:15 AM 42.5386 -89.0439 136° Southeast 329 379 11,000 -98 Level Chicago Center
Sun 08:11:16 AM 42.5022 -88.9225 112° Southeast 345 397 10,800 -492 Descending Chicago Center
Sun 08:12:17 AM 42.4658 -88.8025 112° Southeast 346 398 10,000 -443 Descending Chicago Center
Sun 08:13:18 AM 42.4308 -88.6861 112° Southeast 339 390 9,900 -443 Descending Chicago Center
Sun 08:14:19 AM 42.3950 -88.5778 114° Southeast 326 375 9,100 -443 Descending Chicago Center
Sun 08:15:20 AM 42.3494 -88.4786 122° Southeast 315 362 9,000 -390 Descending Chicago Center
Sun 08:16:22 AM 42.3014 -88.3625 119° Southeast 316 364 8,300 -683 Descending Chicago Center
Sun 08:17:23 AM 42.2583 -88.2617 120° Southeast 312 359 7,600 -738 Descending Chicago Center
Sun 08:18:24 AM 42.2131 -88.1808 127° Southeast 283 326 6,800 -1,180 Descending Chicago Center
Sun 08:19:25 AM 42.1617 -88.1283 143° Southeast 239 275 5,200 -1,279 Descending Chicago Center
Sun 08:20:26 AM 42.1167 -88.0833 143° Southeast 156 180 4,200 -893 Descending Chicago TRACON
Sun 08:21:26 AM 42.1000 -88.0500 124° Southeast 147 169 3,400 -800 Descending Chicago TRACON
Sun 08:22:26 AM 42.0667 -88.0167 143° Southeast 130 150 2,600 -800 Descending Chicago TRACON

Login

Don't have an account? Register now (free) for customized features, flight alerts, and more!